sensor_id;sensor_type;location;lat;lon;timestamp;pressure;altitude;pressure_sealevel;temperature;humidity
967;BME280;56108;48.730;9.304;2023-08-07T00:01:46;97362.94;;;11.57;100.00
967;BME280;56108;48.730;9.304;2023-08-07T00:03:54;97363.78;;;11.46;100.00
967;BME280;56108;48.730;9.304;2023-08-07T00:06:02;97356.03;;;11.43;100.00
967;BME280;56108;48.730;9.304;2023-08-07T00:08:11;97372.59;;;11.47;100.00
967;BME280;56108;48.730;9.304;2023-08-07T00:10:19;97366.44;;;11.46;100.00
967;BME280;56108;48.730;9.304;2023-08-07T00:12:27;97363.16;;;11.43;100.00
967;BME280;56108;48.730;9.304;2023-08-07T00:14:39;97368.97;;;11.48;100.00
967;BME280;56108;48.730;9.304;2023-08-07T00:16:50;97376.03;;;11.49;100.00
967;BME280;56108;48.730;9.304;2023-08-07T00:19:03;97383.53;;;11.55;100.00
967;BME280;56108;48.730;9.304;2023-08-07T00:21:11;97384.13;;;11.47;100.00
967;BME280;56108;48.730;9.304;2023-08-07T00:23:20;97370.78;;;11.47;100.00
967;BME280;56108;48.730;9.304;2023-08-07T00:25:26;97395.63;;;11.48;100.00
967;BME280;56108;48.730;9.304;2023-08-07T00:27:34;97401.34;;;11.55;100.00
967;BME280;56108;48.730;9.304;2023-08-07T00:29:45;97392.72;;;11.51;100.00
967;BME280;56108;48.730;9.304;2023-08-07T00:31:54;97396.25;;;11.52;100.00
967;BME280;56108;48.730;9.304;2023-08-07T00:34:02;97395.53;;;11.61;100.00
967;BME280;56108;48.730;9.304;2023-08-07T00:36:10;97390.94;;;11.63;100.00
967;BME280;56108;48.730;9.304;2023-08-07T00:38:18;97389.72;;;11.56;100.00
967;BME280;56108;48.730;9.304;2023-08-07T00:40:27;97394.44;;;11.52;100.00
967;BME280;56108;48.730;9.304;2023-08-07T00:42:32;97390.28;;;11.48;100.00
967;BME280;56108;48.730;9.304;2023-08-07T00:44:40;97390.41;;;11.46;100.00
967;BME280;56108;48.730;9.304;2023-08-07T00:46:51;97399.88;;;11.50;100.00
967;BME280;56108;48.730;9.304;2023-08-07T00:49:00;97402.16;;;11.44;100.00
967;BME280;56108;48.730;9.304;2023-08-07T00:51:08;97404.59;;;11.58;100.00
967;BME280;56108;48.730;9.304;2023-08-07T00:53:19;97417.72;;;11.61;100.00
967;BME280;56108;48.730;9.304;2023-08-07T00:55:28;97412.69;;;11.45;100.00
967;BME280;56108;48.730;9.304;2023-08-07T00:57:37;97410.75;;;11.47;100.00
967;BME280;56108;48.730;9.304;2023-08-07T00:59:45;97412.69;;;11.45;100.00
967;BME280;56108;48.730;9.304;2023-08-07T01:01:56;97414.06;;;11.62;100.00
967;BME280;56108;48.730;9.304;2023-08-07T01:04:04;97414.44;;;11.58;100.00
967;BME280;56108;48.730;9.304;2023-08-07T01:06:13;97413.44;;;11.59;100.00
967;BME280;56108;48.730;9.304;2023-08-07T01:08:22;97422.19;;;11.61;100.00
967;BME280;56108;48.730;9.304;2023-08-07T01:10:38;97419.28;;;11.64;100.00
967;BME280;56108;48.730;9.304;2023-08-07T01:12:54;97421.09;;;11.63;100.00
967;BME280;56108;48.730;9.304;2023-08-07T01:15:12;97416.13;;;11.59;100.00
967;BME280;56108;48.730;9.304;2023-08-07T01:17:23;97428.25;;;11.63;100.00
967;BME280;56108;48.730;9.304;2023-08-07T01:19:34;97424.38;;;11.67;100.00
967;BME280;56108;48.730;9.304;2023-08-07T01:21:48;97430.31;;;11.59;100.00
967;BME280;56108;48.730;9.304;2023-08-07T01:23:56;97426.34;;;11.65;100.00
967;BME280;56108;48.730;9.304;2023-08-07T01:26:04;97426.22;;;11.66;100.00
967;BME280;56108;48.730;9.304;2023-08-07T01:28:19;97427.28;;;11.64;100.00
967;BME280;56108;48.730;9.304;2023-08-07T01:30:34;97432.38;;;11.67;100.00
967;BME280;56108;48.730;9.304;2023-08-07T01:32:53;97425.34;;;11.55;100.00
967;BME280;56108;48.730;9.304;2023-08-07T01:35:03;97426.84;;;11.70;100.00
967;BME280;56108;48.730;9.304;2023-08-07T01:37:15;97429.22;;;11.62;100.00
967;BME280;56108;48.730;9.304;2023-08-07T01:39:25;97425.06;;;11.46;100.00
967;BME280;56108;48.730;9.304;2023-08-07T01:41:35;97424.50;;;11.54;100.00
967;BME280;56108;48.730;9.304;2023-08-07T01:43:45;97430.25;;;11.48;100.00
967;BME280;56108;48.730;9.304;2023-08-07T01:45:53;97424.13;;;11.59;100.00
967;BME280;56108;48.730;9.304;2023-08-07T01:48:02;97422.88;;;11.52;100.00
967;BME280;56108;48.730;9.304;2023-08-07T01:50:10;97425.06;;;11.46;100.00
967;BME280;56108;48.730;9.304;2023-08-07T01:52:22;97415.00;;;11.39;100.00
967;BME280;56108;48.730;9.304;2023-08-07T01:54:31;97419.59;;;11.48;100.00
967;BME280;56108;48.730;9.304;2023-08-07T01:56:39;97416.56;;;11.41;100.00
967;BME280;56108;48.730;9.304;2023-08-07T01:58:48;97420.41;;;11.37;100.00
967;BME280;56108;48.730;9.304;2023-08-07T02:00:53;97415.72;;;11.41;100.00
967;BME280;56108;48.730;9.304;2023-08-07T02:03:01;97415.38;;;11.45;100.00
967;BME280;56108;48.730;9.304;2023-08-07T02:05:11;97414.41;;;11.46;100.00
967;BME280;56108;48.730;9.304;2023-08-07T02:07:21;97423.16;;;11.48;100.00
967;BME280;56108;48.730;9.304;2023-08-07T02:09:31;97420.56;;;11.47;100.00
967;BME280;56108;48.730;9.304;2023-08-07T02:11:39;97417.53;;;11.40;100.00
967;BME280;56108;48.730;9.304;2023-08-07T02:13:48;97423.63;;;11.54;100.00
967;BME280;56108;48.730;9.304;2023-08-07T02:15:56;97424.09;;;11.47;100.00
967;BME280;56108;48.730;9.304;2023-08-07T02:18:04;97421.91;;;11.53;100.00
967;BME280;56108;48.730;9.304;2023-08-07T02:20:13;97436.50;;;11.60;100.00
967;BME280;56108;48.730;9.304;2023-08-07T02:22:24;97427.75;;;11.58;100.00
967;BME280;56108;48.730;9.304;2023-08-07T02:24:33;97426.19;;;11.55;100.00
967;BME280;56108;48.730;9.304;2023-08-07T02:26:41;97434.69;;;11.60;100.00
967;BME280;56108;48.730;9.304;2023-08-07T02:28:49;97444.22;;;11.52;100.00
967;BME280;56108;48.730;9.304;2023-08-07T02:30:57;97446.16;;;11.49;100.00
967;BME280;56108;48.730;9.304;2023-08-07T02:33:06;97437.81;;;11.54;100.00
967;BME280;56108;48.730;9.304;2023-08-07T02:35:14;97443.75;;;11.58;100.00
967;BME280;56108;48.730;9.304;2023-08-07T02:37:25;97443.28;;;11.64;100.00
967;BME280;56108;48.730;9.304;2023-08-07T02:39:34;97447.38;;;11.57;100.00
967;BME280;56108;48.730;9.304;2023-08-07T02:41:42;97443.28;;;11.64;100.00
967;BME280;56108;48.730;9.304;2023-08-07T02:43:50;97453.56;;;11.57;100.00
967;BME280;56108;48.730;9.304;2023-08-07T02:45:58;97449.69;;;11.61;100.00
967;BME280;56108;48.730;9.304;2023-08-07T02:48:07;97451.13;;;11.54;100.00
967;BME280;56108;48.730;9.304;2023-08-07T02:50:15;97453.09;;;11.63;100.00
967;BME280;56108;48.730;9.304;2023-08-07T02:52:26;97458.16;;;11.55;100.00
967;BME280;56108;48.730;9.304;2023-08-07T02:54:35;97453.56;;;11.57;100.00
967;BME280;56108;48.730;9.304;2023-08-07T02:56:43;97449.88;;;11.47;100.00
967;BME280;56108;48.730;9.304;2023-08-07T02:58:54;97452.69;;;11.45;100.00
967;BME280;56108;48.730;9.304;2023-08-07T03:01:03;97455.97;;;11.49;100.00
967;BME280;56108;48.730;9.304;2023-08-07T03:03:13;97453.31;;;11.49;100.00
967;BME280;56108;48.730;9.304;2023-08-07T03:05:21;97450.00;;;11.45;100.00
967;BME280;56108;48.730;9.304;2023-08-07T03:07:33;97452.88;;;11.42;100.00
967;BME280;56108;48.730;9.304;2023-08-07T03:09:45;97458.66;;;11.60;100.00
967;BME280;56108;48.730;9.304;2023-08-07T03:11:53;97451.69;;;11.46;100.00
967;BME280;56108;48.730;9.304;2023-08-07T03:14:02;97462.75;;;11.53;100.00
967;BME280;56108;48.730;9.304;2023-08-07T03:16:10;97463.13;;;11.48;100.00
967;BME280;56108;48.730;9.304;2023-08-07T03:18:18;97464.91;;;11.48;100.00
967;BME280;56108;48.730;9.304;2023-08-07T03:20:27;97471.44;;;11.44;100.00
967;BME280;56108;48.730;9.304;2023-08-07T03:22:38;97476.78;;;11.44;100.00
967;BME280;56108;48.730;9.304;2023-08-07T03:24:47;97474.47;;;11.39;100.00
967;BME280;56108;48.730;9.304;2023-08-07T03:26:56;97481.59;;;11.39;100.00
967;BME280;56108;48.730;9.304;2023-08-07T03:29:04;97472.81;;;11.26;100.00
967;BME280;56108;48.730;9.304;2023-08-07T03:31:12;97468.50;;;11.36;100.00
967;BME280;56108;48.730;9.304;2023-08-07T03:33:21;97469.59;;;11.33;100.00
967;BME280;56108;48.730;9.304;2023-08-07T03:35:30;97460.72;;;11.33;100.00
967;BME280;56108;48.730;9.304;2023-08-07T03:37:41;97469.28;;;11.25;100.00
967;BME280;56108;48.730;9.304;2023-08-07T03:39:50;97464.09;;;11.23;100.00
967;BME280;56108;48.730;9.304;2023-08-07T03:41:58;97457.06;;;11.22;100.00
967;BME280;56108;48.730;9.304;2023-08-07T03:44:07;97459.88;;;11.32;100.00
967;BME280;56108;48.730;9.304;2023-08-07T03:46:15;97459.38;;;11.27;100.00
967;BME280;56108;48.730;9.304;2023-08-07T03:48:23;97456.44;;;11.19;100.00
967;BME280;56108;48.730;9.304;2023-08-07T03:50:31;97453.53;;;11.22;100.00
967;BME280;56108;48.730;9.304;2023-08-07T03:52:42;97455.75;;;11.28;100.00
967;BME280;56108;48.730;9.304;2023-08-07T03:54:51;97457.91;;;11.23;100.00
967;BME280;56108;48.730;9.304;2023-08-07T03:56:59;97454.50;;;11.21;100.00
967;BME280;56108;48.730;9.304;2023-08-07T03:59:07;97458.63;;;11.25;100.00
967;BME280;56108;48.730;9.304;2023-08-07T04:01:16;97466.50;;;11.27;100.00
967;BME280;56108;48.730;9.304;2023-08-07T04:03:25;97464.47;;;11.30;100.00
967;BME280;56108;48.730;9.304;2023-08-07T04:05:35;97461.66;;;11.20;100.00
967;BME280;56108;48.730;9.304;2023-08-07T04:07:47;97464.81;;;11.26;100.00
967;BME280;56108;48.730;9.304;2023-08-07T04:09:55;97473.19;;;11.32;100.00
967;BME280;56108;48.730;9.304;2023-08-07T04:12:04;97461.53;;;11.22;100.00
967;BME280;56108;48.730;9.304;2023-08-07T04:14:13;97464.94;;;11.24;100.00
967;BME280;56108;48.730;9.304;2023-08-07T04:16:21;97471.00;;;11.26;100.00
967;BME280;56108;48.730;9.304;2023-08-07T04:18:30;97480.06;;;11.23;100.00
967;BME280;56108;48.730;9.304;2023-08-07T04:20:41;97470.22;;;11.13;100.00
967;BME280;56108;48.730;9.304;2023-08-07T04:22:51;97471.84;;;11.27;100.00
967;BME280;56108;48.730;9.304;2023-08-07T04:25:00;97476.06;;;11.18;100.00
967;BME280;56108;48.730;9.304;2023-08-07T04:27:09;97480.75;;;11.14;100.00
967;BME280;56108;48.730;9.304;2023-08-07T04:29:17;97479.25;;;11.10;100.00
967;BME280;56108;48.730;9.304;2023-08-07T04:31:25;97479.59;;;11.06;100.00
967;BME280;56108;48.730;9.304;2023-08-07T04:33:33;97478.88;;;11.04;100.00
967;BME280;56108;48.730;9.304;2023-08-07T04:35:41;97479.84;;;11.03;100.00
967;BME280;56108;48.730;9.304;2023-08-07T04:37:47;97491.19;;;11.17;100.00
967;BME280;56108;48.730;9.304;2023-08-07T04:39:58;97488.41;;;11.19;100.00
967;BME280;56108;48.730;9.304;2023-08-07T04:42:07;97490.72;;;11.23;100.00
967;BME280;56108;48.730;9.304;2023-08-07T04:44:15;97488.06;;;11.23;100.00
967;BME280;56108;48.730;9.304;2023-08-07T04:46:23;97490.28;;;11.30;100.00
967;BME280;56108;48.730;9.304;2023-08-07T04:48:32;97494.88;;;11.28;100.00
967;BME280;56108;48.730;9.304;2023-08-07T04:50:40;97500.81;;;11.31;100.00
967;BME280;56108;48.730;9.304;2023-08-07T04:52:49;97499.56;;;11.24;100.00
967;BME280;56108;48.730;9.304;2023-08-07T04:54:59;97502.88;;;11.28;100.00
967;BME280;56108;48.730;9.304;2023-08-07T04:57:08;97503.75;;;11.39;100.00
967;BME280;56108;48.730;9.304;2023-08-07T04:59:16;97505.69;;;11.37;100.00
967;BME280;56108;48.730;9.304;2023-08-07T05:01:24;97502.59;;;11.43;100.00
967;BME280;56108;48.730;9.304;2023-08-07T05:03:30;97512.38;;;11.43;100.00
967;BME280;56108;48.730;9.304;2023-08-07T05:05:38;97505.25;;;11.43;100.00
967;BME280;56108;48.730;9.304;2023-08-07T05:07:47;97509.19;;;11.38;100.00
967;BME280;56108;48.730;9.304;2023-08-07T05:09:55;97509.69;;;11.43;100.00
967;BME280;56108;48.730;9.304;2023-08-07T05:12:08;97511.00;;;11.37;100.00
967;BME280;56108;48.730;9.304;2023-08-07T05:14:16;97506.78;;;11.35;100.00
967;BME280;56108;48.730;9.304;2023-08-07T05:16:24;97504.75;;;11.38;100.00
967;BME280;56108;48.730;9.304;2023-08-07T05:18:33;97518.16;;;11.37;100.00
967;BME280;56108;48.730;9.304;2023-08-07T05:20:41;97508.59;;;11.34;100.00
967;BME280;56108;48.730;9.304;2023-08-07T05:22:49;97511.75;;;11.39;100.00
967;BME280;56108;48.730;9.304;2023-08-07T05:24:58;97505.06;;;11.34;100.00
967;BME280;56108;48.730;9.304;2023-08-07T05:27:10;97519.13;;;11.36;100.00
967;BME280;56108;48.730;9.304;2023-08-07T05:29:19;97520.34;;;11.43;100.00
967;BME280;56108;48.730;9.304;2023-08-07T05:31:27;97515.78;;;11.45;100.00
967;BME280;56108;48.730;9.304;2023-08-07T05:33:36;97523.91;;;11.43;100.00
967;BME280;56108;48.730;9.304;2023-08-07T05:35:44;97532.53;;;11.58;100.00
967;BME280;56108;48.730;9.304;2023-08-07T05:37:52;97536.19;;;11.57;100.00
967;BME280;56108;48.730;9.304;2023-08-07T05:40:02;97540.09;;;11.64;100.00
967;BME280;56108;48.730;9.304;2023-08-07T05:42:10;97542.34;;;11.58;100.00
967;BME280;56108;48.730;9.304;2023-08-07T05:44:18;97542.53;;;11.91;100.00
967;BME280;56108;48.730;9.304;2023-08-07T05:46:27;97542.06;;;11.97;100.00
967;BME280;56108;48.730;9.304;2023-08-07T05:48:35;97540.84;;;11.90;100.00
967;BME280;56108;48.730;9.304;2023-08-07T05:50:43;97548.47;;;11.95;100.00
967;BME280;56108;48.730;9.304;2023-08-07T05:52:52;97551.56;;;12.01;100.00
967;BME280;56108;48.730;9.304;2023-08-07T05:55:00;97554.13;;;12.14;100.00
967;BME280;56108;48.730;9.304;2023-08-07T05:57:14;97550.41;;;12.28;100.00
967;BME280;56108;48.730;9.304;2023-08-07T05:59:22;97549.91;;;12.34;100.00
967;BME280;56108;48.730;9.304;2023-08-07T06:01:30;97554.44;;;12.45;100.00
967;BME280;56108;48.730;9.304;2023-08-07T06:03:39;97559.06;;;12.54;100.00
967;BME280;56108;48.730;9.304;2023-08-07T06:05:44;97567.69;;;12.69;100.00
967;BME280;56108;48.730;9.304;2023-08-07T06:07:52;97561.72;;;12.65;100.00
967;BME280;56108;48.730;9.304;2023-08-07T06:10:01;97571.34;;;12.79;100.00
967;BME280;56108;48.730;9.304;2023-08-07T06:12:09;97573.75;;;12.82;100.00
967;BME280;56108;48.730;9.304;2023-08-07T06:14:20;97587.31;;;12.68;100.00
967;BME280;56108;48.730;9.304;2023-08-07T06:16:30;97589.28;;;12.77;100.00
967;BME280;56108;48.730;9.304;2023-08-07T06:18:36;97591.38;;;12.85;100.00
967;BME280;56108;48.730;9.304;2023-08-07T06:20:44;97588.56;;;12.97;100.00
967;BME280;56108;48.730;9.304;2023-08-07T06:22:52;97595.34;;;13.13;100.00
967;BME280;56108;48.730;9.304;2023-08-07T06:25:00;97592.22;;;13.07;100.00
967;BME280;56108;48.730;9.304;2023-08-07T06:27:10;97586.25;;;13.04;100.00
967;BME280;56108;48.730;9.304;2023-08-07T06:29:21;97588.81;;;13.17;100.00
967;BME280;56108;48.730;9.304;2023-08-07T06:31:29;97588.47;;;13.32;100.00
967;BME280;56108;48.730;9.304;2023-08-07T06:33:38;97588.28;;;13.56;100.00
967;BME280;56108;48.730;9.304;2023-08-07T06:35:46;97592.94;;;13.87;100.00
967;BME280;56108;48.730;9.304;2023-08-07T06:37:54;97597.09;;;13.79;100.00
967;BME280;56108;48.730;9.304;2023-08-07T06:40:04;97600.75;;;13.78;100.00
967;BME280;56108;48.730;9.304;2023-08-07T06:42:12;97602.53;;;13.89;100.00
967;BME280;56108;48.730;9.304;2023-08-07T06:44:24;97600.44;;;13.93;100.00
967;BME280;56108;48.730;9.304;2023-08-07T06:46:32;97596.91;;;13.92;100.00
967;BME280;56108;48.730;9.304;2023-08-07T06:48:40;97601.75;;;13.98;100.00
967;BME280;56108;48.730;9.304;2023-08-07T06:50:48;97603.19;;;14.02;100.00
967;BME280;56108;48.730;9.304;2023-08-07T06:52:57;97589.16;;;14.21;100.00
967;BME280;56108;48.730;9.304;2023-08-07T06:55:06;97593.03;;;14.49;98.02
967;BME280;56108;48.730;9.304;2023-08-07T06:57:14;97588.75;;;14.88;94.35
967;BME280;56108;48.730;9.304;2023-08-07T06:59:25;97603.69;;;15.22;90.82
967;BME280;56108;48.730;9.304;2023-08-07T07:01:31;97606.25;;;15.63;89.05
967;BME280;56108;48.730;9.304;2023-08-07T07:03:39;97621.56;;;16.02;83.71
967;BME280;56108;48.730;9.304;2023-08-07T07:05:48;97617.75;;;16.33;81.51
967;BME280;56108;48.730;9.304;2023-08-07T07:07:57;97625.22;;;16.59;77.03
967;BME280;56108;48.730;9.304;2023-08-07T07:10:06;97636.28;;;16.46;76.55
967;BME280;56108;48.730;9.304;2023-08-07T07:12:14;97626.31;;;16.95;76.49
967;BME280;56108;48.730;9.304;2023-08-07T07:14:25;97635.41;;;16.75;72.41
967;BME280;56108;48.730;9.304;2023-08-07T07:16:33;97638.81;;;16.77;72.87
967;BME280;56108;48.730;9.304;2023-08-07T07:18:42;97631.06;;;16.44;73.42
967;BME280;56108;48.730;9.304;2023-08-07T07:20:56;97651.34;;;18.25;70.26
967;BME280;56108;48.730;9.304;2023-08-07T07:23:05;97686.91;;;20.37;54.18
967;BME280;56108;48.730;9.304;2023-08-07T07:25:14;97700.69;;;20.92;51.00
967;BME280;56108;48.730;9.304;2023-08-07T07:27:22;97696.28;;;20.75;52.55
967;BME280;56108;48.730;9.304;2023-08-07T07:29:33;97681.94;;;19.65;54.61
967;BME280;56108;48.730;9.304;2023-08-07T07:31:41;97679.03;;;18.53;59.23
967;BME280;56108;48.730;9.304;2023-08-07T07:33:49;97651.72;;;17.57;63.23
967;BME280;56108;48.730;9.304;2023-08-07T07:35:58;97654.28;;;17.12;66.07
967;BME280;56108;48.730;9.304;2023-08-07T07:38:06;97650.56;;;16.56;67.80
967;BME280;56108;48.730;9.304;2023-08-07T07:40:15;97641.63;;;15.88;73.06
967;BME280;56108;48.730;9.304;2023-08-07T07:42:23;97642.50;;;15.98;73.76
967;BME280;56108;48.730;9.304;2023-08-07T07:44:33;97631.56;;;15.80;74.51
967;BME280;56108;48.730;9.304;2023-08-07T07:46:43;97621.16;;;15.87;78.82
967;BME280;56108;48.730;9.304;2023-08-07T07:48:51;97637.25;;;16.16;76.15
967;BME280;56108;48.730;9.304;2023-08-07T07:51:01;97635.28;;;16.47;75.25
967;BME280;56108;48.730;9.304;2023-08-07T07:55:17;97633.03;;;16.42;73.67
967;BME280;56108;48.730;9.304;2023-08-07T07:57:25;97637.97;;;16.57;73.05
967;BME280;56108;48.730;9.304;2023-08-07T07:59:36;97642.63;;;16.74;73.02
967;BME280;56108;48.730;9.304;2023-08-07T08:01:44;97648.97;;;17.02;72.67
967;BME280;56108;48.730;9.304;2023-08-07T08:03:53;97648.38;;;17.08;67.86
967;BME280;56108;48.730;9.304;2023-08-07T08:06:01;97645.56;;;17.00;70.29
967;BME280;56108;48.730;9.304;2023-08-07T08:08:09;97660.47;;;16.65;67.50
967;BME280;56108;48.730;9.304;2023-08-07T08:10:17;97662.16;;;16.47;64.57
967;BME280;56108;48.730;9.304;2023-08-07T08:12:25;97658.88;;;16.34;67.25
967;BME280;56108;48.730;9.304;2023-08-07T08:14:36;97661.28;;;16.17;66.94
967;BME280;56108;48.730;9.304;2023-08-07T08:16:58;97663.00;;;16.18;65.73
967;BME280;56108;48.730;9.304;2023-08-07T08:19:06;97667.06;;;16.23;69.00
967;BME280;56108;48.730;9.304;2023-08-07T08:21:15;97661.72;;;16.03;70.10
967;BME280;56108;48.730;9.304;2023-08-07T08:23:23;97668.16;;;15.91;66.56
967;BME280;56108;48.730;9.304;2023-08-07T08:25:31;97687.97;;;15.59;66.95
967;BME280;56108;48.730;9.304;2023-08-07T08:27:40;97669.38;;;15.37;66.45
967;BME280;56108;48.730;9.304;2023-08-07T08:29:50;97658.75;;;15.26;69.78
967;BME280;56108;48.730;9.304;2023-08-07T08:31:59;97663.03;;;15.07;68.44
967;BME280;56108;48.730;9.304;2023-08-07T08:34:07;97657.56;;;15.09;71.81
967;BME280;56108;48.730;9.304;2023-08-07T08:36:16;97661.16;;;15.29;71.94
967;BME280;56108;48.730;9.304;2023-08-07T08:38:26;97651.25;;;15.29;71.16
967;BME280;56108;48.730;9.304;2023-08-07T08:40:38;97657.06;;;15.34;69.31
967;BME280;56108;48.730;9.304;2023-08-07T08:42:46;97673.50;;;15.72;68.11
967;BME280;56108;48.730;9.304;2023-08-07T08:44:58;97670.47;;;16.05;66.62
967;BME280;56108;48.730;9.304;2023-08-07T08:47:08;97673.19;;;16.34;64.94
967;BME280;56108;48.730;9.304;2023-08-07T08:49:20;97685.06;;;16.70;62.12
967;BME280;56108;48.730;9.304;2023-08-07T08:51:31;97682.50;;;16.98;62.51
967;BME280;56108;48.730;9.304;2023-08-07T08:53:39;97691.28;;;16.90;58.69
967;BME280;56108;48.730;9.304;2023-08-07T08:55:45;97695.94;;;16.98;56.59
967;BME280;56108;48.730;9.304;2023-08-07T08:57:53;97701.56;;;17.14;55.13
967;BME280;56108;48.730;9.304;2023-08-07T09:00:08;97705.50;;;17.30;56.00
967;BME280;56108;48.730;9.304;2023-08-07T09:02:22;97705.66;;;17.28;55.68
967;BME280;56108;48.730;9.304;2023-08-07T09:04:31;97707.22;;;17.21;54.21
967;BME280;56108;48.730;9.304;2023-08-07T09:06:40;97712.28;;;17.81;53.38
967;BME280;56108;48.730;9.304;2023-08-07T09:08:49;97713.81;;;17.83;53.23
967;BME280;56108;48.730;9.304;2023-08-07T09:10:58;97712.28;;;17.71;52.22
967;BME280;56108;48.730;9.304;2023-08-07T09:13:12;97717.25;;;18.66;52.80
967;BME280;56108;48.730;9.304;2023-08-07T09:15:25;97727.25;;;19.10;51.59
967;BME280;56108;48.730;9.304;2023-08-07T09:17:39;97735.22;;;19.11;49.42
967;BME280;56108;48.730;9.304;2023-08-07T09:19:48;97737.38;;;19.08;49.92
967;BME280;56108;48.730;9.304;2023-08-07T09:21:56;97733.69;;;19.87;48.74
967;BME280;56108;48.730;9.304;2023-08-07T09:24:05;97755.66;;;21.01;45.61
967;BME280;56108;48.730;9.304;2023-08-07T09:26:21;97760.78;;;22.00;44.24
967;BME280;56108;48.730;9.304;2023-08-07T09:28:30;97770.94;;;22.14;42.35
967;BME280;56108;48.730;9.304;2023-08-07T09:30:42;97780.69;;;21.11;44.03
967;BME280;56108;48.730;9.304;2023-08-07T09:32:52;97755.34;;;20.37;45.60
967;BME280;56108;48.730;9.304;2023-08-07T09:35:02;97759.16;;;19.58;47.62
967;BME280;56108;48.730;9.304;2023-08-07T09:37:13;97752.81;;;18.80;48.82
967;BME280;56108;48.730;9.304;2023-08-07T09:39:23;97753.88;;;18.87;49.13
967;BME280;56108;48.730;9.304;2023-08-07T09:41:34;97754.13;;;18.75;50.13
967;BME280;56108;48.730;9.304;2023-08-07T09:43:44;97757.00;;;18.64;49.98
967;BME280;56108;48.730;9.304;2023-08-07T09:46:02;97753.88;;;18.69;50.78
967;BME280;56108;48.730;9.304;2023-08-07T09:48:10;97751.34;;;18.40;50.46
967;BME280;56108;48.730;9.304;2023-08-07T09:50:21;97752.94;;;18.78;50.11
967;BME280;56108;48.730;9.304;2023-08-07T09:52:30;97759.38;;;18.49;49.42
967;BME280;56108;48.730;9.304;2023-08-07T09:54:39;97763.31;;;19.26;49.79
967;BME280;56108;48.730;9.304;2023-08-07T09:56:47;97751.66;;;19.70;50.09
967;BME280;56108;48.730;9.304;2023-08-07T09:58:55;97774.59;;;19.48;48.89
967;BME280;56108;48.730;9.304;2023-08-07T10:01:08;97766.19;;;19.51;48.78
967;BME280;56108;48.730;9.304;2023-08-07T10:03:17;97761.16;;;19.56;49.93
967;BME280;56108;48.730;9.304;2023-08-07T10:05:25;97765.94;;;19.18;50.77
967;BME280;56108;48.730;9.304;2023-08-07T10:07:36;97759.31;;;18.95;51.52
967;BME280;56108;48.730;9.304;2023-08-07T10:09:45;97760.66;;;18.91;50.38
967;BME280;56108;48.730;9.304;2023-08-07T10:11:55;97764.28;;;18.82;50.78
967;BME280;56108;48.730;9.304;2023-08-07T10:14:03;97766.09;;;19.61;50.94
967;BME280;56108;48.730;9.304;2023-08-07T10:16:14;97771.19;;;20.32;48.87
967;BME280;56108;48.730;9.304;2023-08-07T10:18:23;97797.59;;;21.05;45.47
967;BME280;56108;48.730;9.304;2023-08-07T10:20:31;97792.78;;;20.58;46.87
967;BME280;56108;48.730;9.304;2023-08-07T10:22:41;97793.88;;;20.05;47.59
967;BME280;56108;48.730;9.304;2023-08-07T10:24:50;97791.88;;;20.49;46.37
967;BME280;56108;48.730;9.304;2023-08-07T10:27:01;97799.47;;;21.45;45.08
967;BME280;56108;48.730;9.304;2023-08-07T10:29:13;97790.38;;;22.26;42.92
967;BME280;56108;48.730;9.304;2023-08-07T10:31:26;97799.78;;;21.83;43.50
967;BME280;56108;48.730;9.304;2023-08-07T10:33:35;97792.50;;;21.75;41.90
967;BME280;56108;48.730;9.304;2023-08-07T10:35:45;97798.63;;;22.41;41.29
967;BME280;56108;48.730;9.304;2023-08-07T10:37:54;97809.09;;;22.44;40.86
967;BME280;56108;48.730;9.304;2023-08-07T10:40:03;97807.38;;;22.04;41.19
967;BME280;56108;48.730;9.304;2023-08-07T10:42:11;97800.31;;;21.05;42.96
967;BME280;56108;48.730;9.304;2023-08-07T10:44:20;97802.31;;;20.95;43.37
967;BME280;56108;48.730;9.304;2023-08-07T10:46:46;97793.16;;;19.95;44.57
967;BME280;56108;48.730;9.304;2023-08-07T10:48:55;97792.03;;;19.36;44.26
967;BME280;56108;48.730;9.304;2023-08-07T10:51:05;97783.66;;;19.21;45.07
967;BME280;56108;48.730;9.304;2023-08-07T10:53:18;97781.00;;;19.03;46.29
967;BME280;56108;48.730;9.304;2023-08-07T10:55:31;97771.44;;;18.73;47.50
967;BME280;56108;48.730;9.304;2023-08-07T10:57:40;97766.84;;;18.38;47.96
967;BME280;56108;48.730;9.304;2023-08-07T10:59:55;97769.22;;;18.13;48.57
967;BME280;56108;48.730;9.304;2023-08-07T11:02:23;97772.84;;;17.94;48.88
967;BME280;56108;48.730;9.304;2023-08-07T11:04:32;97766.41;;;17.78;50.49
967;BME280;56108;48.730;9.304;2023-08-07T11:06:43;97765.94;;;17.35;50.59
967;BME280;56108;48.730;9.304;2023-08-07T11:08:54;97761.84;;;17.31;51.18
967;BME280;56108;48.730;9.304;2023-08-07T11:11:04;97773.44;;;17.32;51.07
967;BME280;56108;48.730;9.304;2023-08-07T11:13:12;97763.50;;;17.42;52.45
967;BME280;56108;48.730;9.304;2023-08-07T11:15:20;97767.25;;;17.68;53.26
967;BME280;56108;48.730;9.304;2023-08-07T11:17:31;97778.28;;;17.85;51.15
967;BME280;56108;48.730;9.304;2023-08-07T11:19:39;97784.47;;;17.95;49.86
967;BME280;56108;48.730;9.304;2023-08-07T11:21:48;97772.66;;;18.06;51.32
967;BME280;56108;48.730;9.304;2023-08-07T11:23:56;97767.91;;;17.90;51.24
967;BME280;56108;48.730;9.304;2023-08-07T11:26:08;97773.06;;;17.64;53.14
967;BME280;56108;48.730;9.304;2023-08-07T11:28:18;97751.59;;;17.54;54.01
967;BME280;56108;48.730;9.304;2023-08-07T11:30:26;97765.66;;;17.38;52.86
967;BME280;56108;48.730;9.304;2023-08-07T11:32:37;97759.28;;;17.30;54.61
967;BME280;56108;48.730;9.304;2023-08-07T11:34:48;97772.06;;;17.08;55.41
967;BME280;56108;48.730;9.304;2023-08-07T11:36:57;97767.78;;;16.67;55.84
967;BME280;56108;48.730;9.304;2023-08-07T11:39:06;97767.09;;;16.55;55.77
967;BME280;56108;48.730;9.304;2023-08-07T11:41:16;97757.44;;;16.43;58.02